createdAt,value
2018-09-03T00:00:11.266Z,101503.75
2018-09-03T00:02:40.061Z,101503.83
2018-09-03T00:05:09.147Z,101504.30
2018-09-03T00:07:37.710Z,101498.73
2018-09-03T00:10:06.468Z,101496.66
2018-09-03T00:12:35.237Z,101497.07
2018-09-03T00:15:04.966Z,101496.30
2018-09-03T00:17:33.501Z,101492.88
2018-09-03T00:20:03.633Z,101494.73
2018-09-03T00:22:32.566Z,101492.13
2018-09-03T00:25:02.656Z,101489.61
2018-09-03T00:27:31.294Z,101489.72
2018-09-03T00:30:00.019Z,101479.38
2018-09-03T00:32:34.236Z,101483.75
2018-09-03T00:35:08.954Z,101483.83
2018-09-03T00:37:43.016Z,101482.59
2018-09-03T00:40:17.024Z,101476.20
2018-09-03T00:42:51.416Z,101472.02
2018-09-03T00:45:25.295Z,101475.14
2018-09-03T00:47:54.037Z,101474.39
2018-09-03T00:50:22.640Z,101477.07
2018-09-03T00:52:51.395Z,101478.03
2018-09-03T00:55:20.014Z,101479.39
2018-09-03T00:57:48.865Z,101470.74
2018-09-03T01:00:17.690Z,101473.42
2018-09-03T01:02:46.415Z,101469.09
2018-09-03T01:05:15.165Z,101468.30
2018-09-03T01:07:43.895Z,101461.44
2018-09-03T01:10:12.634Z,101462.77
2018-09-03T01:12:41.347Z,101456.31
2018-09-03T01:15:10.131Z,101452.92
2018-09-03T01:17:38.728Z,101443.81
2018-09-03T01:20:07.422Z,101441.67
2018-09-03T01:22:36.100Z,101441.67
2018-09-03T01:25:04.945Z,101428.80
2018-09-03T01:27:34.171Z,101431.70
2018-09-03T01:30:03.678Z,101427.41
2018-09-03T01:32:32.355Z,101429.52
2018-09-03T01:35:01.347Z,101427.77
2018-09-03T01:37:29.955Z,101438.62
2018-09-03T01:39:58.712Z,101429.16
2018-09-03T01:42:27.325Z,101427.80
2018-09-03T01:44:56.025Z,101426.58
2018-09-03T01:47:24.611Z,101428.80
2018-09-03T01:49:53.311Z,101434.83
2018-09-03T01:52:21.885Z,101445.72
2018-09-03T01:54:50.448Z,101451.36
2018-09-03T01:57:19.095Z,101450.14
2018-09-03T01:59:47.976Z,101442.34
2018-09-03T02:02:16.691Z,101449.79
2018-09-03T02:04:45.224Z,101447.19
2018-09-03T02:07:13.916Z,101448.14
2018-09-03T02:09:42.625Z,101449.87
2018-09-03T02:12:12.366Z,101448.56
2018-09-03T02:14:42.557Z,101445.91
2018-09-03T02:17:12.203Z,101444.66
2018-09-03T02:19:40.949Z,101452.05
2018-09-03T02:22:09.631Z,101449.88
2018-09-03T02:24:38.569Z,101445.19
2018-09-03T02:27:07.374Z,101439.20
2018-09-03T02:29:35.937Z,101434.92
2018-09-03T02:32:05.015Z,101434.41
2018-09-03T02:34:33.599Z,101437.85
2018-09-03T02:37:02.825Z,101441.23
2018-09-03T02:39:31.467Z,101434.68
2018-09-03T02:42:00.067Z,101435.13
2018-09-03T02:44:28.568Z,101429.91
2018-09-03T02:46:57.111Z,101426.44
2018-09-03T02:49:25.763Z,101424.66
2018-09-03T02:51:54.393Z,101429.26
2018-09-03T02:54:23.078Z,101425.33
2018-09-03T02:56:52.323Z,101429.63
2018-09-03T02:59:20.947Z,101424.41
2018-09-03T03:01:49.571Z,101431.39
2018-09-03T03:04:18.211Z,101414.00
2018-09-03T03:06:46.861Z,101406.66
2018-09-03T03:09:15.437Z,101394.97
2018-09-03T03:11:44.094Z,101391.56
2018-09-03T03:14:12.731Z,101380.42
2018-09-03T03:16:41.450Z,101391.17
2018-09-03T03:19:10.135Z,101393.31
2018-09-03T03:21:38.734Z,101388.47
2018-09-03T03:24:07.621Z,101386.75
2018-09-03T03:26:36.256Z,101389.33
2018-09-03T03:29:04.896Z,101392.02
2018-09-03T03:31:33.527Z,101400.68
2018-09-03T03:34:02.243Z,101400.26
2018-09-03T03:36:30.921Z,101404.61
2018-09-03T03:38:59.887Z,101402.45
2018-09-03T03:41:28.650Z,101401.12
2018-09-03T03:43:57.221Z,101396.88
2018-09-03T03:46:26.307Z,101392.91
2018-09-03T03:48:55.125Z,101388.56
2018-09-03T03:51:24.063Z,101380.38
2018-09-03T03:53:52.983Z,101375.19
2018-09-03T03:56:22.326Z,101365.64
2018-09-03T03:58:51.257Z,101354.38
2018-09-03T04:01:20.035Z,101353.09
2018-09-03T04:03:49.403Z,101352.70
2018-09-03T04:06:18.512Z,101350.98
2018-09-03T04:08:48.693Z,101353.56
2018-09-03T04:11:17.628Z,101346.19
2018-09-03T04:13:46.424Z,101354.45
2018-09-03T04:16:15.205Z,101351.84
2018-09-03T04:18:43.965Z,101351.89
2018-09-03T04:21:12.638Z,101354.94
2018-09-03T04:23:41.441Z,101356.27
2018-09-03T04:26:10.091Z,101355.02
2018-09-03T04:28:38.830Z,101355.06
2018-09-03T04:31:07.611Z,101358.14
2018-09-03T04:33:36.253Z,101360.41
2018-09-03T04:36:05.079Z,101358.76
2018-09-03T04:38:33.750Z,101353.06
2018-09-03T04:41:02.507Z,101359.20
2018-09-03T04:43:31.264Z,101357.83
2018-09-03T04:46:00.122Z,101358.68
2018-09-03T04:48:28.887Z,101361.70
2018-09-03T04:50:58.271Z,101365.11
2018-09-03T04:53:27.782Z,101367.30
2018-09-03T04:55:57.326Z,101377.78
2018-09-03T04:58:26.150Z,101373.44
2018-09-03T05:00:58.052Z,101373.53
2018-09-03T05:03:29.855Z,101376.21
2018-09-03T05:05:58.962Z,101372.36
2018-09-03T05:08:29.806Z,101372.70
2018-09-03T05:10:58.902Z,101369.25
2018-09-03T05:13:27.609Z,101362.24
2018-09-03T05:15:56.477Z,101360.06
2018-09-03T05:18:26.193Z,101356.94
2018-09-03T05:20:56.625Z,101351.30
2018-09-03T05:23:25.677Z,101365.11
2018-09-03T05:25:54.770Z,101370.66
2018-09-03T05:28:25.924Z,101364.52
2018-09-03T05:30:54.562Z,101365.37
2018-09-03T05:33:25.721Z,101369.67
2018-09-03T05:35:54.667Z,101363.98
2018-09-03T05:38:23.342Z,101360.95
2018-09-03T05:40:52.368Z,101363.48
2018-09-03T05:43:21.258Z,101359.08
2018-09-03T05:45:50.125Z,101362.87
2018-09-03T05:48:19.365Z,101368.40
2018-09-03T05:50:48.082Z,101359.63
2018-09-03T05:53:17.589Z,101353.92
2018-09-03T05:55:47.133Z,101347.83
2018-09-03T05:58:15.766Z,101352.97
2018-09-03T06:00:44.376Z,101354.61
2018-09-03T06:03:13.059Z,101360.51
2018-09-03T06:05:42.256Z,101353.00
2018-09-03T06:08:12.926Z,101349.76
2018-09-03T06:10:41.895Z,101359.65
2018-09-03T06:13:10.627Z,101359.50
2018-09-03T06:15:39.919Z,101364.59
2018-09-03T06:18:08.456Z,101367.89
2018-09-03T06:20:38.252Z,101367.80
2018-09-03T06:23:09.017Z,101374.26
2018-09-03T06:25:38.615Z,101368.55
2018-09-03T06:28:07.191Z,101364.12
2018-09-03T06:30:35.927Z,101361.91
2018-09-03T06:33:04.808Z,101354.03
2018-09-03T06:35:35.970Z,101358.71
2018-09-03T06:38:04.594Z,101345.20
2018-09-03T06:40:33.716Z,101350.78
2018-09-03T06:43:03.280Z,101350.78
2018-09-03T06:45:33.065Z,101350.27
2018-09-03T06:48:04.507Z,101346.33
2018-09-03T06:50:33.295Z,101347.57
2018-09-03T06:53:01.907Z,101348.87
2018-09-03T06:55:31.458Z,101340.16
2018-09-03T06:58:00.307Z,101335.91
2018-09-03T07:00:29.329Z,101328.41
2018-09-03T07:02:58.239Z,101326.05
2018-09-03T07:05:27.687Z,101333.14
2018-09-03T07:07:58.126Z,101334.95
2018-09-03T07:10:27.562Z,101343.22
2018-09-03T07:12:57.333Z,101328.44
2018-09-03T07:15:26.485Z,101320.78
2018-09-03T07:17:56.159Z,101327.23
2018-09-03T07:20:25.166Z,101328.61
2018-09-03T07:22:55.921Z,101324.73
2018-09-03T07:25:24.753Z,101322.53
2018-09-03T07:27:54.945Z,101325.66
2018-09-03T07:30:23.892Z,101332.88
2018-09-03T07:32:53.061Z,101327.55
2018-09-03T07:35:23.206Z,101337.30
2018-09-03T07:37:51.963Z,101337.05
2018-09-03T07:40:21.808Z,101335.13
2018-09-03T07:42:50.490Z,101326.41
2018-09-03T07:45:20.704Z,101326.09
2018-09-03T07:47:49.440Z,101326.20
2018-09-03T07:50:19.408Z,101322.18
2018-09-03T07:52:48.248Z,101316.06
2018-09-03T07:55:16.936Z,101321.97
2018-09-03T07:57:47.219Z,101310.08
2018-09-03T08:00:17.412Z,101305.95
2018-09-03T08:02:46.197Z,101308.00
2018-09-03T08:05:17.260Z,101301.66
2018-09-03T08:07:46.444Z,101305.44
2018-09-03T08:10:15.127Z,101297.89
2018-09-03T08:12:44.370Z,101299.09
2018-09-03T08:15:12.951Z,101304.16
2018-09-03T08:17:41.675Z,101302.41
2018-09-03T08:20:10.433Z,101300.69
2018-09-03T08:22:40.148Z,101301.89
2018-09-03T08:25:09.225Z,101298.23
2018-09-03T08:27:39.048Z,101285.95
2018-09-03T08:30:09.854Z,101290.86
2018-09-03T08:32:39.450Z,101285.66
2018-09-03T08:35:08.327Z,101279.70
2018-09-03T08:37:39.202Z,101275.09
2018-09-03T08:40:07.868Z,101262.39
2018-09-03T08:42:36.808Z,101272.15
2018-09-03T08:45:05.754Z,101264.59
2018-09-03T08:47:35.144Z,101270.11
2018-09-03T08:50:06.054Z,101266.84
2018-09-03T08:52:35.505Z,101269.29
2018-09-03T08:55:04.306Z,101265.48
2018-09-03T08:57:34.000Z,101267.84
2018-09-03T09:00:02.777Z,101266.49
2018-09-03T09:02:31.627Z,101274.87
2018-09-03T09:05:01.820Z,101260.44
2018-09-03T09:07:31.500Z,101264.19
2018-09-03T09:10:01.122Z,101265.09
2018-09-03T09:12:30.840Z,101263.66
2018-09-03T09:15:01.816Z,101266.12
2018-09-03T09:17:30.753Z,101255.53
2018-09-03T09:20:01.419Z,101254.69
2018-09-03T09:22:30.091Z,101256.73
2018-09-03T09:27:26.614Z,101251.03
2018-09-03T09:29:55.920Z,101255.91
2018-09-03T09:32:25.080Z,101256.05
2018-09-03T09:34:53.766Z,101254.75
2018-09-03T09:37:22.501Z,101256.01
2018-09-03T09:39:51.226Z,101249.83
2018-09-03T09:42:20.365Z,101246.43
2018-09-03T09:44:49.200Z,101243.17
2018-09-03T09:47:17.928Z,101240.16
2018-09-03T09:49:46.773Z,101238.87
2018-09-03T09:52:15.548Z,101239.76
2018-09-03T09:54:44.202Z,101232.61
2018-09-03T09:57:14.371Z,101242.30
2018-09-03T09:59:43.174Z,101235.86
2018-09-03T10:02:12.437Z,101236.26
2018-09-03T10:04:41.301Z,101242.21
2018-09-03T10:07:10.772Z,101241.86
2018-09-03T10:09:39.613Z,101241.06
2018-09-03T10:12:08.997Z,101236.13
2018-09-03T10:14:37.924Z,101229.92
2018-09-03T10:17:06.944Z,101217.15
2018-09-03T10:19:36.051Z,101223.09
2018-09-03T10:22:04.856Z,101225.62
2018-09-03T10:24:33.469Z,101219.43
2018-09-03T10:27:02.957Z,101220.86
2018-09-03T10:29:31.951Z,101217.53
2018-09-03T10:32:01.531Z,101226.80
2018-09-03T10:34:30.270Z,101227.96
2018-09-03T10:36:59.331Z,101224.97
2018-09-03T10:39:30.416Z,101218.90
2018-09-03T10:42:00.311Z,101218.80
2018-09-03T10:44:29.618Z,101213.65
2018-09-03T10:46:58.468Z,101205.05
2018-09-03T10:49:27.750Z,101208.42
2018-09-03T10:51:56.463Z,101214.99
2018-09-03T10:54:25.287Z,101211.81
2018-09-03T10:56:54.811Z,101209.67
2018-09-03T10:59:23.438Z,101203.65
2018-09-03T11:01:52.123Z,101200.50
2018-09-03T11:04:21.015Z,101206.05
2018-09-03T11:06:49.752Z,101202.53
2018-09-03T11:09:18.352Z,101206.25
2018-09-03T11:11:47.517Z,101201.97
2018-09-03T11:14:16.233Z,101205.00
2018-09-03T11:16:44.903Z,101198.03
2018-09-03T11:19:13.555Z,101194.50
2018-09-03T11:21:42.798Z,101185.94
2018-09-03T11:24:11.450Z,101186.70
2018-09-03T11:26:41.579Z,101185.28
2018-09-03T11:29:10.916Z,101174.54
2018-09-03T11:31:39.508Z,101181.86
2018-09-03T11:34:08.342Z,101178.48
2018-09-03T11:36:37.069Z,101175.63
2018-09-03T11:39:11.995Z,101179.73
2018-09-03T11:41:42.285Z,101179.28
2018-09-03T11:44:11.409Z,101172.48
2018-09-03T11:46:40.111Z,101170.08
2018-09-03T11:49:09.588Z,101167.29
2018-09-03T11:51:38.230Z,101171.16
2018-09-03T11:54:08.467Z,101165.13
2018-09-03T11:56:38.821Z,101160.67
2018-09-03T11:59:07.610Z,101163.42
2018-09-03T12:01:36.304Z,101152.45
2018-09-03T12:04:05.597Z,101155.93
2018-09-03T12:06:34.350Z,101153.00
2018-09-03T12:09:04.163Z,101150.84
2018-09-03T12:11:32.839Z,101148.58
2018-09-03T12:14:03.405Z,101143.17
2018-09-03T12:16:32.099Z,101142.23
2018-09-03T12:19:00.915Z,101146.01
2018-09-03T12:21:30.630Z,101145.34
2018-09-03T12:23:59.307Z,101136.78
2018-09-03T12:26:29.353Z,101138.23
2018-09-03T12:28:59.198Z,101131.61
2018-09-03T12:31:27.942Z,101125.25
2018-09-03T12:33:58.121Z,101123.44
2018-09-03T12:36:27.967Z,101120.52
2018-09-03T12:38:56.900Z,101119.70
2018-09-03T12:41:26.533Z,101115.93
2018-09-03T12:43:55.849Z,101107.89
2018-09-03T12:46:25.798Z,101108.66
2018-09-03T12:48:54.597Z,101108.24
2018-09-03T12:51:23.849Z,101109.64
2018-09-03T12:53:53.243Z,101101.31
2018-09-03T12:56:22.333Z,101102.20
2018-09-03T12:58:51.610Z,101093.05
2018-09-03T13:01:20.895Z,101096.07
2018-09-03T13:03:49.703Z,101094.16
2018-09-03T13:06:20.489Z,101090.97
2018-09-03T13:08:50.534Z,101084.03
2018-09-03T13:11:19.418Z,101078.58
2018-09-03T13:13:48.151Z,101080.23
2018-09-03T13:16:17.963Z,101077.66
2018-09-03T13:18:46.689Z,101072.41
2018-09-03T13:21:16.279Z,101063.99
2018-09-03T13:23:45.516Z,101061.39
2018-09-03T13:26:15.087Z,101058.23
2018-09-03T13:28:43.884Z,101052.39
2018-09-03T13:31:12.972Z,101054.22
2018-09-03T13:33:42.763Z,101049.06
2018-09-03T13:36:11.497Z,101058.00
2018-09-03T13:38:40.210Z,101054.78
2018-09-03T13:41:08.950Z,101048.62
2018-09-03T13:43:37.675Z,101045.83
2018-09-03T13:46:06.766Z,101039.78
2018-09-03T13:48:36.101Z,101043.28
2018-09-03T13:51:05.797Z,101033.67
2018-09-03T13:53:35.241Z,101028.34
2018-09-03T13:56:04.189Z,101026.63
2018-09-03T13:58:33.874Z,101029.86
2018-09-03T14:01:03.023Z,101024.91
2018-09-03T14:03:32.060Z,101018.51
2018-09-03T14:06:00.883Z,101022.23
2018-09-03T14:08:30.372Z,101029.66
2018-09-03T14:10:59.651Z,101021.20
2018-09-03T14:13:28.404Z,101021.22
2018-09-03T14:15:57.297Z,101017.11
2018-09-03T14:18:26.420Z,101015.47
2018-09-03T14:20:55.386Z,101016.77
2018-09-03T14:23:24.430Z,101012.19
2018-09-03T14:25:54.246Z,101011.42
2018-09-03T14:28:24.923Z,101002.94
2018-09-03T14:30:54.132Z,101003.49
2018-09-03T14:33:22.749Z,101004.77
2018-09-03T14:35:51.567Z,100999.39
2018-09-03T14:38:20.921Z,101005.63
2018-09-03T14:40:49.514Z,100993.39
2018-09-03T14:43:18.470Z,100986.06
2018-09-03T14:45:47.515Z,100989.25
2018-09-03T14:48:16.596Z,100983.52
2018-09-03T14:50:49.801Z,100986.06
2018-09-03T14:53:19.413Z,100986.30
2018-09-03T14:55:48.326Z,100981.84
2018-09-03T14:58:18.027Z,100981.69
2018-09-03T15:00:46.827Z,100982.19
2018-09-03T15:03:16.130Z,100982.94
2018-09-03T15:05:44.812Z,100987.34
2018-09-03T15:08:13.741Z,100986.50
2018-09-03T15:10:42.545Z,100990.79
2018-09-03T15:13:12.205Z,100980.76
2018-09-03T15:15:41.878Z,100981.89
2018-09-03T15:18:11.184Z,100985.05
2018-09-03T15:20:41.817Z,100980.36
2018-09-03T15:23:10.358Z,100976.09
2018-09-03T15:25:39.689Z,100981.03
2018-09-03T15:28:08.767Z,100985.87
2018-09-03T15:30:37.402Z,100977.00
2018-09-03T15:33:07.287Z,100972.34
2018-09-03T15:35:38.312Z,100976.03
2018-09-03T15:38:07.475Z,100978.67
2018-09-03T15:40:37.067Z,100977.13
2018-09-03T15:43:06.268Z,100977.19
2018-09-03T15:45:36.479Z,100970.43
2018-09-03T15:48:05.472Z,100978.88
2018-09-03T15:50:35.509Z,100977.96
2018-09-03T15:53:06.597Z,100971.59
2018-09-03T15:55:35.705Z,100978.54
2018-09-03T15:58:05.709Z,100981.38
2018-09-03T16:00:34.789Z,100979.11
2018-09-03T16:03:03.949Z,100981.24
2018-09-03T16:05:33.586Z,100987.62
2018-09-03T16:08:02.940Z,100994.89
2018-09-03T16:10:32.273Z,100993.72
2018-09-03T16:13:02.538Z,100989.67
2018-09-03T16:15:32.031Z,100988.20
2018-09-03T16:18:02.348Z,100991.05
2018-09-03T16:20:30.960Z,100986.86
2018-09-03T16:22:59.975Z,100983.77
2018-09-03T16:25:28.755Z,100983.20
2018-09-03T16:27:59.092Z,100985.19
2018-09-03T16:30:27.762Z,100988.48
2018-09-03T16:32:57.027Z,100983.41
2018-09-03T16:35:26.946Z,100992.17
2018-09-03T16:37:56.109Z,100994.67
2018-09-03T16:40:25.922Z,100982.55
2018-09-03T16:42:54.666Z,100990.45
2018-09-03T16:45:24.121Z,100989.22
2018-09-03T16:47:53.464Z,100997.31
2018-09-03T16:50:22.859Z,100998.90
2018-09-03T16:52:51.755Z,100995.53
2018-09-03T16:55:20.599Z,100992.04
2018-09-03T16:57:50.164Z,100988.67
2018-09-03T17:00:18.940Z,100992.70
2018-09-03T17:02:48.523Z,100991.19
2018-09-03T17:05:17.704Z,100982.73
2018-09-03T17:07:46.522Z,100985.91
2018-09-03T17:10:15.248Z,100984.67
2018-09-03T17:12:43.864Z,100988.08
2018-09-03T17:15:13.040Z,100988.61
2018-09-03T17:17:42.499Z,100993.52
2018-09-03T17:20:11.600Z,100986.95
2018-09-03T17:22:40.367Z,100987.92
2018-09-03T17:25:09.077Z,100988.03
2018-09-03T17:27:37.945Z,100988.30
2018-09-03T17:30:08.510Z,100989.41
2018-09-03T17:32:37.358Z,100988.00
2018-09-03T17:35:07.172Z,100995.12
2018-09-03T17:37:35.828Z,100991.08
2018-09-03T17:40:06.933Z,100992.93
2018-09-03T17:42:37.200Z,100994.08
2018-09-03T17:45:08.406Z,100993.48
2018-09-03T17:47:37.728Z,100997.61
2018-09-03T17:50:06.681Z,100998.26
2018-09-03T17:52:35.556Z,100998.91
2018-09-03T17:55:05.840Z,101003.48
2018-09-03T17:57:34.701Z,101006.84
2018-09-03T18:00:04.689Z,101005.23
2018-09-03T18:02:33.407Z,101000.63
2018-09-03T18:05:03.278Z,101005.20
2018-09-03T18:07:33.314Z,101005.03
2018-09-03T18:10:04.171Z,101011.89
2018-09-03T18:12:33.736Z,101003.33
2018-09-03T18:15:03.990Z,101005.82
2018-09-03T18:17:32.865Z,101009.65
2018-09-03T18:20:03.744Z,101008.58
2018-09-03T18:22:32.896Z,101009.22
2018-09-03T18:25:02.012Z,101006.84
2018-09-03T18:27:30.901Z,101013.58
2018-09-03T18:29:59.632Z,101011.66
2018-09-03T18:32:28.452Z,101017.08
2018-09-03T18:34:57.250Z,101017.71
2018-09-03T18:37:25.952Z,101015.09
2018-09-03T18:39:56.752Z,101018.91
2018-09-03T18:42:25.524Z,101020.36
2018-09-03T18:44:54.385Z,101029.20
2018-09-03T18:47:23.343Z,101026.63
2018-09-03T18:49:52.036Z,101030.19
2018-09-03T18:52:21.708Z,101025.56
2018-09-03T18:54:50.364Z,101024.41
2018-09-03T18:57:19.521Z,101035.02
2018-09-03T18:59:48.244Z,101037.39
2018-09-03T19:02:16.981Z,101044.97
2018-09-03T19:04:45.880Z,101036.38
2018-09-03T19:07:15.454Z,101036.64
2018-09-03T19:09:44.322Z,101038.88
2018-09-03T19:12:12.969Z,101038.19
2018-09-03T19:14:42.962Z,101039.56
2018-09-03T19:17:11.999Z,101028.77
2018-09-03T19:19:40.855Z,101039.05
2018-09-03T19:22:09.717Z,101034.35
2018-09-03T19:24:38.742Z,101032.71
2018-09-03T19:27:08.494Z,101035.04
2018-09-03T19:29:38.333Z,101032.58
2018-09-03T19:32:07.823Z,101033.43
2018-09-03T19:34:38.341Z,101037.44
2018-09-03T19:37:07.747Z,101043.47
2018-09-03T19:39:36.563Z,101042.32
2018-09-03T19:42:05.505Z,101048.95
2018-09-03T19:44:35.113Z,101043.70
2018-09-03T19:47:05.319Z,101045.62
2018-09-03T19:49:34.164Z,101045.62
2018-09-03T19:52:04.043Z,101044.71
2018-09-03T19:54:32.817Z,101040.16
2018-09-03T19:57:02.304Z,101042.32
2018-09-03T19:59:31.494Z,101042.68
2018-09-03T20:02:00.629Z,101040.52
2018-09-03T20:04:29.394Z,101039.70
2018-09-03T20:06:58.105Z,101042.32
2018-09-03T20:09:26.974Z,101045.47
2018-09-03T20:11:55.915Z,101041.07
2018-09-03T20:14:25.118Z,101037.14
2018-09-03T20:16:53.970Z,101039.00
2018-09-03T20:19:22.920Z,101041.23
2018-09-03T20:21:52.958Z,101047.50
2018-09-03T20:24:22.140Z,101041.00
2018-09-03T20:26:51.264Z,101043.69
2018-09-03T20:29:20.674Z,101048.19
2018-09-03T20:31:50.675Z,101050.41
2018-09-03T20:34:19.525Z,101047.03
2018-09-03T20:36:48.482Z,101049.02
2018-09-03T20:39:17.660Z,101048.42
2018-09-03T20:41:46.596Z,101050.20
2018-09-03T20:44:16.134Z,101048.64
2018-09-03T20:46:48.949Z,101041.88
2018-09-03T20:49:17.937Z,101046.31
2018-09-03T20:51:47.047Z,101052.92
2018-09-03T20:54:15.957Z,101053.45
2018-09-03T20:56:44.839Z,101051.84
2018-09-03T20:59:13.768Z,101059.41
2018-09-03T21:01:42.547Z,101061.39
2018-09-03T21:04:12.434Z,101058.83
2018-09-03T21:06:41.395Z,101065.45
2018-09-03T21:09:10.513Z,101062.12
2018-09-03T21:11:40.476Z,101057.40
2018-09-03T21:14:10.229Z,101060.17
2018-09-03T21:16:39.524Z,101065.27
2018-09-03T21:19:09.840Z,101062.00
2018-09-03T21:21:39.687Z,101071.47
2018-09-03T21:24:09.479Z,101072.67
2018-09-03T21:26:39.597Z,101079.03
2018-09-03T21:29:12.033Z,101081.31
2018-09-03T21:31:42.574Z,101077.44
2018-09-03T21:34:11.924Z,101086.55
2018-09-03T21:36:41.116Z,101087.61
2018-09-03T21:39:10.083Z,101090.31
2018-09-03T21:41:39.300Z,101086.90
2018-09-03T21:44:08.340Z,101087.81
2018-09-03T21:46:37.777Z,101098.23
2018-09-03T21:49:06.581Z,101093.45
2018-09-03T21:51:35.105Z,101101.76
2018-09-03T21:54:03.812Z,101099.69
2018-09-03T21:56:32.397Z,101091.83
2018-09-03T21:59:01.815Z,101096.27
2018-09-03T22:01:30.492Z,101089.86
2018-09-03T22:04:00.224Z,101089.55
2018-09-03T22:06:31.958Z,101089.61
2018-09-03T22:09:02.161Z,101085.67
2018-09-03T22:11:31.088Z,101087.98
2018-09-03T22:14:01.153Z,101088.38
2018-09-03T22:16:30.547Z,101095.89
2018-09-03T22:19:00.492Z,101083.89
2018-09-03T22:21:29.089Z,101091.80
2018-09-03T22:23:58.940Z,101085.70
2018-09-03T22:26:27.636Z,101083.23
2018-09-03T22:28:56.572Z,101081.06
2018-09-03T22:31:25.699Z,101085.91
2018-09-03T22:33:54.929Z,101082.06
2018-09-03T22:36:23.748Z,101079.78
2018-09-03T22:38:53.160Z,101082.80
2018-09-03T22:41:22.359Z,101084.76
2018-09-03T22:43:51.108Z,101079.66
2018-09-03T22:46:20.592Z,101087.31
2018-09-03T22:48:49.220Z,101080.31
2018-09-03T22:51:17.844Z,101082.88
2018-09-03T22:53:46.634Z,101083.38
2018-09-03T22:56:15.494Z,101090.41
2018-09-03T22:58:44.083Z,101088.04
2018-09-03T23:01:12.830Z,101078.56
2018-09-03T23:03:41.584Z,101082.22
2018-09-03T23:06:10.153Z,101081.91
2018-09-03T23:08:38.791Z,101083.27
2018-09-03T23:11:07.499Z,101078.13
2018-09-03T23:13:36.550Z,101076.88
2018-09-03T23:16:05.599Z,101082.34
2018-09-03T23:18:34.823Z,101083.42
2018-09-03T23:21:06.103Z,101081.66
2018-09-03T23:23:35.615Z,101079.18
2018-09-03T23:26:05.249Z,101083.38
2018-09-03T23:28:34.254Z,101083.62
2018-09-03T23:31:04.301Z,101082.26
2018-09-03T23:33:33.834Z,101077.08
2018-09-03T23:36:04.060Z,101081.13
2018-09-03T23:38:33.748Z,101080.87
2018-09-03T23:41:03.917Z,101077.80
2018-09-03T23:43:33.079Z,101079.19
2018-09-03T23:46:03.649Z,101076.30
2018-09-03T23:48:32.995Z,101066.88
2018-09-03T23:51:01.757Z,101076.80
2018-09-03T23:53:30.341Z,101071.88
2018-09-03T23:56:02.353Z,101078.88
2018-09-03T23:58:31.695Z,101074.63
